Time;durP1;ratioP1;P1;durP2;ratioP2;P2;SDS_P1;SDS_P2;PMS_P1;PMS_P2;Temp;Humidity;BMP_temperature;BMP_pressure;BME280_temperature;BME280_humidity;BME280_pressure;Samples;Min_cycle;Max_cycle;Signal;HPM_P1;HPM_P2
2022/12/09 00:02:48;;;;;;;11.73;8.50;;;0.50;1.00;;;;;;10430515;28;20250;-79
2022/12/09 00:08:09;;;;;;;13.73;8.30;;;0.40;1.00;;;;;;10418570;28;20212;-79
2022/12/09 00:13:30;;;;;;;13.80;8.70;;;0.30;1.00;;;;;;10398112;28;20388;-79
2022/12/09 00:18:51;;;;;;;21.60;12.17;;;0.20;1.00;;;;;;10383360;28;20282;-79
2022/12/09 00:24:13;;;;;;;38.37;16.30;;;0.20;1.00;;;;;;10385625;28;20214;-80
2022/12/09 00:29:36;;;;;;;22.73;12.30;;;0.10;1.00;;;;;;10385967;28;20509;-79
2022/12/09 00:34:57;;;;;;;16.30;8.90;;;0.10;1.00;;;;;;10383057;28;20210;-80
2022/12/09 00:40:18;;;;;;;18.10;9.60;;;0.00;1.00;;;;;;10373111;28;20210;-80
2022/12/09 00:45:39;;;;;;;23.53;14.30;;;-0.10;1.00;;;;;;10402408;28;20233;-80
2022/12/09 00:51:01;;;;;;;17.13;10.60;;;-0.20;1.00;;;;;;10378590;28;20223;-85
2022/12/09 00:56:28;;;;;;;14.90;9.57;;;-0.20;1.00;;;;;;10402620;28;20206;-81
2022/12/09 01:01:52;;;;;;;12.03;8.87;;;-0.20;1.00;;;;;;10446406;28;20199;-81
2022/12/09 01:07:23;;;;;;;12.63;8.57;;;-0.10;1.00;;;;;;10409454;28;20301;-80
2022/12/09 01:12:51;;;;;;;14.70;8.40;;;-0.20;1.00;;;;;;10422135;28;20233;-80
2022/12/09 01:18:16;;;;;;;13.47;7.93;;;-0.20;1.00;;;;;;10395627;28;20421;-81
2022/12/09 01:23:56;;;;;;;15.03;8.37;;;-0.40;1.00;;;;;;10410725;28;20197;-83
2022/12/09 01:29:22;;;;;;;13.73;8.60;;;-0.30;1.00;;;;;;10421376;28;20202;-80
2022/12/09 01:34:50;;;;;;;12.67;7.50;;;-0.30;1.00;;;;;;10421685;28;20220;-82
2022/12/09 01:40:18;;;;;;;12.97;8.67;;;-0.30;1.00;;;;;;10395677;28;20543;-80
2022/12/09 01:45:50;;;;;;;12.90;8.37;;;-0.40;1.00;;;;;;10420997;28;20586;-81
2022/12/09 01:51:27;;;;;;;14.40;9.00;;;-0.40;1.00;;;;;;10437787;28;20198;-81
2022/12/09 01:56:59;;;;;;;13.93;9.10;;;-0.40;1.00;;;;;;10379490;28;20222;-80
2022/12/09 02:02:44;;;;;;;18.37;10.33;;;-0.40;1.00;;;;;;10420501;28;20197;-80
2022/12/09 02:08:27;;;;;;;17.40;9.13;;;-0.30;1.00;;;;;;10414048;28;20230;-79
2022/12/09 02:14:17;;;;;;;14.60;9.03;;;-0.30;1.00;;;;;;10429077;28;20513;-79
2022/12/09 02:20:00;;;;;;;15.63;9.50;;;-0.30;1.00;;;;;;10409507;28;20221;-81
2022/12/09 02:25:35;;;;;;;16.50;9.80;;;-0.50;1.00;;;;;;10405579;28;20408;-80
2022/12/09 02:31:15;;;;;;;17.00;9.70;;;-0.50;1.00;;;;;;10391937;28;20492;-80
2022/12/09 02:36:51;;;;;;;19.80;10.73;;;-0.60;1.00;;;;;;10393389;28;20201;-79
2022/12/09 02:42:17;;;;;;;18.77;11.17;;;-0.60;1.00;;;;;;10397725;28;20755;-84
2022/12/09 02:47:47;;;;;;;17.53;9.97;;;-0.60;1.00;;;;;;10405359;28;20230;-78
2022/12/09 02:53:12;;;;;;;17.07;8.90;;;-0.50;1.00;;;;;;10418988;28;20214;-79
2022/12/09 02:58:33;;;;;;;16.23;8.80;;;-0.50;1.00;;;;;;10421133;28;20203;-79
2022/12/09 03:03:55;;;;;;;15.87;9.70;;;-0.50;1.00;;;;;;10432372;28;20242;-80
2022/12/09 03:09:38;;;;;;;13.23;8.17;;;-0.40;1.00;;;;;;10404778;28;20241;-79
2022/12/09 03:15:02;;;;;;;15.33;9.30;;;-0.40;1.00;;;;;;10377961;28;20223;-79
2022/12/09 03:20:28;;;;;;;12.53;7.27;;;-0.50;1.00;;;;;;10382475;28;20419;-78
2022/12/09 03:25:52;;;;;;;10.97;7.53;;;-0.50;1.00;;;;;;10385465;28;20302;-78
2022/12/09 03:31:17;;;;;;;11.77;7.83;;;-0.50;1.00;;;;;;10372163;28;20234;-78
2022/12/09 03:36:45;;;;;;;14.07;8.63;;;-0.60;1.00;;;;;;10385233;28;20209;-78
2022/12/09 03:42:21;;;;;;;9.57;7.17;;;-0.60;1.00;;;;;;10374124;28;20195;-78
2022/12/09 03:47:44;;;;;;;11.80;8.73;;;-0.60;1.00;;;;;;10384589;28;20285;-78
2022/12/09 03:53:14;;;;;;;10.83;8.30;;;-0.70;1.00;;;;;;10386713;28;21339;-78
2022/12/09 03:58:39;;;;;;;9.93;7.47;;;-0.60;1.00;;;;;;10458523;28;20194;-78
2022/12/09 04:04:01;;;;;;;8.47;6.53;;;-0.60;1.00;;;;;;10438568;28;20305;-79
2022/12/09 04:09:22;;;;;;;8.50;5.97;;;-0.60;1.00;;;;;;10397055;28;20228;-81
2022/12/09 04:14:44;;;;;;;9.47;6.30;;;-0.50;1.00;;;;;;10369908;28;20242;-79
2022/12/09 04:20:06;;;;;;;11.67;6.30;;;-0.60;1.00;;;;;;10370027;28;20301;-81
2022/12/09 04:25:28;;;;;;;10.77;5.77;;;-0.60;1.00;;;;;;10383050;28;20296;-78
2022/12/09 04:30:49;;;;;;;9.00;6.43;;;-0.60;1.00;;;;;;10385526;28;20526;-83
2022/12/09 04:36:13;;;;;;;7.70;5.37;;;-0.60;1.00;;;;;;10355613;28;20234;-79
2022/12/09 04:41:35;;;;;;;16.63;8.80;;;-0.60;1.00;;;;;;10385445;28;20379;-81
2022/12/09 04:46:57;;;;;;;24.67;14.33;;;-0.60;1.00;;;;;;10386022;28;20277;-79
2022/12/09 04:52:18;;;;;;;18.87;11.90;;;-0.60;1.00;;;;;;10384036;28;20204;-78
2022/12/09 04:57:59;;;;;;;20.40;12.03;;;-0.70;1.00;;;;;;10406231;28;20191;-78
2022/12/09 05:03:22;;;;;;;14.47;9.00;;;-0.70;1.00;;;;;;10441467;28;20222;-79
2022/12/09 05:08:44;;;;;;;17.83;10.33;;;-0.90;1.00;;;;;;10408293;28;20576;-79
2022/12/09 05:14:05;;;;;;;19.47;10.03;;;-1.20;1.00;;;;;;10380880;28;20226;-78
2022/12/09 05:19:27;;;;;;;17.90;10.43;;;-1.30;1.00;;;;;;10383301;28;20232;-81
2022/12/09 05:24:48;;;;;;;15.73;9.90;;;-1.40;1.00;;;;;;10380542;28;20203;-78
2022/12/09 05:30:10;;;;;;;19.60;12.07;;;-1.60;1.00;;;;;;10366613;28;20496;-79
2022/12/09 05:35:31;;;;;;;19.03;12.03;;;-1.80;1.00;;;;;;10379823;28;20265;-79
2022/12/09 05:40:54;;;;;;;19.87;14.07;;;-1.90;1.00;;;;;;10366116;28;20210;-80
2022/12/09 05:46:15;;;;;;;19.23;11.50;;;-2.00;1.00;;;;;;10382077;28;20221;-79
2022/12/09 05:51:36;;;;;;;17.00;9.90;;;-2.20;1.00;;;;;;10382286;28;20193;-80
2022/12/09 05:56:59;;;;;;;13.07;9.23;;;-2.40;1.00;;;;;;10399634;28;20207;-78
2022/12/09 06:02:21;;;;;;;20.23;13.97;;;-2.50;1.00;;;;;;10423000;28;20451;-79
2022/12/09 06:07:42;;;;;;;33.33;22.87;;;-2.60;1.00;;;;;;10373903;28;20220;-79
2022/12/09 06:13:03;;;;;;;52.00;28.50;;;-2.60;1.00;;;;;;10424094;28;20497;-79
2022/12/09 06:18:24;;;;;;;98.70;41.53;;;-2.50;1.00;;;;;;10381120;28;20235;-80
2022/12/09 06:23:47;;;;;;;123.40;50.97;;;-2.40;1.00;;;;;;10394972;28;20201;-80
2022/12/09 06:29:08;;;;;;;139.60;60.53;;;-2.40;1.00;;;;;;10385046;28;20459;-79
2022/12/09 06:34:29;;;;;;;118.77;54.97;;;-2.30;1.00;;;;;;10381439;28;20203;-80
2022/12/09 06:39:50;;;;;;;114.77;59.63;;;-2.20;1.00;;;;;;10396019;28;20196;-80
2022/12/09 06:45:12;;;;;;;107.40;52.47;;;-2.10;1.00;;;;;;10395890;28;20214;-80
2022/12/09 06:50:35;;;;;;;115.03;51.30;;;-2.10;1.00;;;;;;10381443;28;20206;-80
2022/12/09 06:56:01;;;;;;;132.50;59.87;;;-2.10;1.00;;;;;;10410902;28;20201;-80
2022/12/09 07:01:26;;;;;;;216.97;85.87;;;-1.90;1.00;;;;;;10434041;28;20282;-80
2022/12/09 07:06:47;;;;;;;186.73;79.73;;;-1.80;1.00;;;;;;10413073;28;20489;-79
2022/12/09 07:12:08;;;;;;;224.87;75.83;;;-1.70;1.00;;;;;;10410129;28;20201;-79
2022/12/09 07:17:30;;;;;;;247.87;86.23;;;-1.60;1.00;;;;;;10399245;28;20275;-82
2022/12/09 07:22:51;;;;;;;199.90;80.53;;;-1.50;1.00;;;;;;10429390;28;20188;-80
2022/12/09 07:28:12;;;;;;;134.27;68.33;;;-1.50;1.00;;;;;;10443546;28;20226;-80
2022/12/09 07:33:34;;;;;;;98.90;52.33;;;-1.40;1.00;;;;;;10412112;28;20230;-86
2022/12/09 07:39:01;;;;;;;110.10;56.23;;;-1.30;1.00;;;;;;10443788;28;20266;-79
2022/12/09 07:44:24;;;;;;;124.83;64.13;;;-1.40;1.00;;;;;;10412013;28;20271;-79
2022/12/09 07:49:45;;;;;;;165.77;76.87;;;-1.40;1.00;;;;;;10441816;28;20593;-79
2022/12/09 07:55:07;;;;;;;174.10;86.43;;;-1.40;99.90;;;;;;10433868;28;20192;-79
2022/12/09 08:00:28;;;;;;;137.93;72.20;;;-1.50;99.90;;;;;;10446047;28;20193;-80
2022/12/09 08:05:52;;;;;;;156.43;85.67;;;-1.60;1.00;;;;;;10410438;28;20254;-80
2022/12/09 08:11:16;;;;;;;129.17;65.23;;;-1.40;1.00;;;;;;10410522;28;20204;-79
2022/12/09 08:16:38;;;;;;;126.20;63.07;;;-1.40;99.90;;;;;;10424170;28;20399;-80
2022/12/09 08:21:59;;;;;;;131.50;66.50;;;-1.40;20.50;;;;;;10396688;28;20373;-79
2022/12/09 08:33:26;;;;;;;120.33;53.00;;;-1.40;99.90;;;;;;10389204;28;20562;-77
2022/12/09 08:38:47;;;;;;;132.90;60.20;;;-1.60;94.20;;;;;;10378162;28;20198;-76
2022/12/09 08:44:17;;;;;;;134.87;69.97;;;-1.60;1.00;;;;;;10379627;28;20210;-84
2022/12/09 08:49:38;;;;;;;87.87;46.57;;;-1.70;99.90;;;;;;10378392;28;20237;-81
2022/12/09 08:55:00;;;;;;;55.00;30.53;;;-1.80;1.00;;;;;;10378862;28;20194;-81
2022/12/09 09:00:21;;;;;;;60.30;30.13;;;-1.80;1.00;;;;;;10363405;28;20480;-79
2022/12/09 09:05:43;;;;;;;60.70;32.67;;;-1.60;1.00;;;;;;10354049;28;20228;-84
2022/12/09 09:11:18;;;;;;;70.77;34.70;;;-1.40;1.00;;;;;;10338957;28;20207;-83
2022/12/09 09:16:42;;;;;;;75.53;37.83;;;-1.10;6.20;;;;;;10359285;28;20219;-81
2022/12/09 09:22:02;;;;;;;92.47;43.53;;;-0.80;49.00;;;;;;10378736;28;20454;-85
2022/12/09 09:27:24;;;;;;;122.60;54.87;;;-0.40;1.00;;;;;;10393436;28;20266;-81
2022/12/09 09:32:45;;;;;;;145.00;62.53;;;-0.30;99.90;;;;;;10395835;28;20225;-77
2022/12/09 09:38:06;;;;;;;178.47;79.63;;;-0.30;1.00;;;;;;10360755;28;20219;-83
2022/12/09 09:43:36;;;;;;;217.23;92.97;;;-0.40;1.00;;;;;;10376820;28;20280;-78
2022/12/09 09:48:59;;;;;;;235.53;107.20;;;-0.30;1.00;;;;;;10390819;28;20579;-78
2022/12/09 09:54:21;;;;;;;207.87;101.97;;;-0.20;1.00;;;;;;10390137;28;20200;-77
2022/12/09 10:00:20;;;;;;;260.30;122.73;;;0.00;99.90;;;;;;10390350;28;20206;-85
2022/12/09 10:06:17;;;;;;;260.87;117.47;;;0.00;1.00;;;;;;10336960;28;20223;-80
2022/12/09 10:11:54;;;;;;;204.50;99.97;;;0.00;99.90;;;;;;10305365;28;20223;-85
2022/12/09 10:17:32;;;;;;;167.70;81.10;;;0.20;99.90;;;;;;10283643;28;20200;-76
2022/12/09 10:23:04;;;;;;;292.77;135.93;;;0.30;1.00;;;;;;10329982;28;20267;-84
2022/12/09 10:28:31;;;;;;;299.60;139.10;;;0.50;1.00;;;;;;10327069;28;20315;-76
2022/12/09 10:33:52;;;;;;;201.53;102.43;;;0.50;99.90;;;;;;10302519;28;20208;-76
2022/12/09 10:39:18;;;;;;;172.60;84.37;;;0.60;1.00;;;;;;10306354;28;20216;-80
2022/12/09 10:44:40;;;;;;;148.53;70.90;;;0.70;1.00;;;;;;10292445;28;20453;-75
2022/12/09 10:50:03;;;;;;;138.50;61.80;;;0.80;99.90;;;;;;10374573;28;20525;-81
2022/12/09 10:55:36;;;;;;;122.90;61.40;;;0.80;99.90;;;;;;10388392;28;20275;-81
2022/12/09 11:01:05;;;;;;;152.30;69.53;;;0.80;31.40;;;;;;10389683;28;20434;-78
2022/12/09 11:06:31;;;;;;;140.93;66.07;;;0.90;99.90;;;;;;10388145;28;20461;-77
2022/12/09 11:11:53;;;;;;;166.67;82.20;;;0.90;99.90;;;;;;10388477;28;20196;-80
2022/12/09 11:17:20;;;;;;;182.70;85.73;;;0.90;99.90;;;;;;10389512;28;20200;-81
2022/12/09 11:22:43;;;;;;;155.20;75.57;;;0.90;1.00;;;;;;10388302;28;20247;-79
2022/12/09 11:28:23;;;;;;;134.70;64.93;;;0.90;1.00;;;;;;10356697;28;20228;-75
2022/12/09 11:33:52;;;;;;;116.53;60.27;;;0.90;1.00;;;;;;10386889;28;20263;-76
2022/12/09 11:39:16;;;;;;;120.43;56.13;;;0.80;1.00;;;;;;10387221;28;20196;-80
2022/12/09 11:44:37;;;;;;;127.00;56.47;;;0.80;1.00;;;;;;10380410;28;20204;-77
2022/12/09 11:50:17;;;;;;;122.30;58.87;;;0.80;1.00;;;;;;10378477;28;20237;-77
2022/12/09 11:55:50;;;;;;;127.90;62.47;;;0.90;1.00;;;;;;10392587;28;20239;-76
2022/12/09 12:01:20;;;;;;;151.50;74.70;;;1.00;67.50;;;;;;10393908;28;20201;-82
2022/12/09 12:06:58;;;;;;;118.97;61.47;;;1.00;1.00;;;;;;10391521;28;20220;-75
2022/12/09 12:12:40;;;;;;;72.60;40.37;;;1.10;1.00;;;;;;10379429;28;20265;-77
2022/12/09 12:18:07;;;;;;;57.23;31.47;;;1.00;99.90;;;;;;10392810;28;20296;-77
2022/12/09 12:23:46;;;;;;;33.53;19.60;;;1.10;1.00;;;;;;10394886;28;20204;-77
2022/12/09 12:29:20;;;;;;;33.67;15.93;;;1.00;1.00;;;;;;10390791;28;20267;-78
2022/12/09 12:35:05;;;;;;;21.70;13.67;;;1.00;1.00;;;;;;10392933;28;20203;-76
2022/12/09 12:40:38;;;;;;;30.23;18.03;;;1.10;99.90;;;;;;10393595;28;20545;-77
2022/12/09 12:46:15;;;;;;;38.13;20.43;;;1.10;1.00;;;;;;10393738;28;20394;-82
2022/12/09 12:52:21;;;;;;;25.37;14.50;;;1.10;99.90;;;;;;10338868;28;20205;-79
2022/12/09 12:58:12;;;;;;;29.63;15.67;;;1.00;99.90;;;;;;10309089;28;20281;-76
2022/12/09 13:03:51;;;;;;;36.83;19.20;;;1.00;1.00;;;;;;10304606;28;20229;-76
2022/12/09 13:09:41;;;;;;;73.20;34.00;;;1.00;99.90;;;;;;10342665;28;20232;-77
2022/12/09 13:15:03;;;;;;;63.13;32.20;;;0.90;99.90;;;;;;10331165;28;20282;-76
2022/12/09 13:20:35;;;;;;;64.50;34.40;;;0.90;99.90;;;;;;10316137;28;20203;-79
2022/12/09 13:26:14;;;;;;;79.70;39.37;;;0.90;1.00;;;;;;10333296;28;20240;-76
2022/12/09 13:31:42;;;;;;;125.27;51.53;;;0.80;99.90;;;;;;10374355;28;20243;-78
2022/12/09 13:37:04;;;;;;;202.77;79.73;;;0.90;1.00;;;;;;10392197;28;20200;-75
2022/12/09 13:48:09;;;;;;;191.07;74.30;;;0.80;1.00;;;;;;10352244;28;20240;-78
2022/12/09 13:53:43;;;;;;;198.03;77.00;;;0.80;1.00;;;;;;10341978;28;20437;-77
2022/12/09 13:59:15;;;;;;;138.50;62.63;;;0.70;1.00;;;;;;10390141;28;20207;-85
2022/12/09 14:04:45;;;;;;;99.83;48.07;;;0.70;99.90;;;;;;10376504;28;20720;-76
2022/12/09 14:10:42;;;;;;;105.50;52.60;;;0.60;99.90;;;;;;10390654;28;20235;-78
2022/12/09 14:16:14;;;;;;;105.80;52.40;;;0.60;1.00;;;;;;10375179;28;20196;-79
2022/12/09 14:21:35;;;;;;;100.93;53.03;;;0.70;99.90;;;;;;10389112;28;20203;-77
2022/12/09 14:26:59;;;;;;;133.70;63.00;;;0.70;99.90;;;;;;10375163;28;20304;-77
2022/12/09 14:32:49;;;;;;;125.87;50.23;;;0.70;1.00;;;;;;10372894;28;20487;-77
2022/12/09 14:38:38;;;;;;;87.63;40.57;;;0.70;99.90;;;;;;10389940;28;20243;-77
2022/12/09 14:44:40;;;;;;;101.13;42.97;;;0.60;1.00;;;;;;10368466;28;20231;-78
2022/12/09 14:50:11;;;;;;;130.37;57.77;;;0.60;1.00;;;;;;10388516;28;20227;-78
2022/12/09 14:55:38;;;;;;;132.07;63.20;;;0.60;1.00;;;;;;10374902;28;20291;-76
2022/12/09 15:01:01;;;;;;;140.37;66.37;;;0.60;1.00;;;;;;10388331;28;20224;-78
2022/12/09 15:06:26;;;;;;;117.20;56.40;;;0.50;1.00;;;;;;10373935;28;20227;-77
2022/12/09 15:11:47;;;;;;;117.23;59.50;;;0.70;1.00;;;;;;10358851;28;20203;-87
2022/12/09 15:17:16;;;;;;;80.77;46.53;;;0.60;1.00;;;;;;10392861;28;20449;-80
2022/12/09 15:22:37;;;;;;;60.30;32.60;;;0.60;1.00;;;;;;10392659;28;20197;-80
2022/12/09 15:27:58;;;;;;;54.40;30.43;;;0.50;1.00;;;;;;10391641;28;20227;-79
2022/12/09 15:33:19;;;;;;;49.97;30.53;;;0.50;1.00;;;;;;10394337;28;20203;-77
2022/12/09 15:38:51;;;;;;;53.60;30.97;;;0.60;1.00;;;;;;10393127;28;20213;-75
2022/12/09 15:44:16;;;;;;;54.93;31.07;;;0.50;1.00;;;;;;10392172;28;20209;-76
2022/12/09 15:49:45;;;;;;;41.40;24.87;;;0.60;1.00;;;;;;10394157;28;20224;-78
2022/12/09 15:55:10;;;;;;;50.77;20.80;;;0.50;99.90;;;;;;10396309;28;20197;-80
2022/12/09 16:00:37;;;;;;;54.10;28.10;;;0.50;1.00;;;;;;10394076;28;20262;-78
2022/12/09 16:06:05;;;;;;;75.80;40.70;;;0.50;99.90;;;;;;10380275;28;20276;-78
2022/12/09 16:11:41;;;;;;;65.10;33.00;;;0.50;99.90;;;;;;10397991;28;20189;-77
2022/12/09 16:17:03;;;;;;;1356.07;674.37;;;0.60;1.00;;;;;;10386406;28;20364;-76
2022/12/09 16:22:32;;;;;;;1174.17;611.33;;;0.50;1.00;;;;;;10399213;28;20204;-79
2022/12/09 16:28:01;;;;;;;598.67;301.13;;;0.60;1.00;;;;;;10397221;28;20552;-76
2022/12/09 16:33:23;;;;;;;446.23;258.40;;;0.60;1.00;;;;;;10398579;28;20200;-74
2022/12/09 16:39:05;;;;;;;243.73;165.33;;;0.50;1.00;;;;;;10398180;28;20227;-77
2022/12/09 16:44:34;;;;;;;82.30;55.30;;;0.50;72.20;;;;;;10371859;28;20283;-76
2022/12/09 16:49:56;;;;;;;34.20;23.83;;;0.50;1.00;;;;;;10358756;28;20275;-79
2022/12/09 16:55:28;;;;;;;52.43;24.87;;;0.50;1.00;;;;;;10392995;28;20199;-77
2022/12/09 17:00:49;;;;;;;49.33;25.50;;;0.50;1.00;;;;;;10397953;28;20196;-77
2022/12/09 17:06:16;;;;;;;44.97;23.27;;;0.50;99.90;;;;;;10373396;28;20238;-77
2022/12/09 17:11:37;;;;;;;52.90;26.70;;;0.50;1.00;;;;;;10378764;28;20196;-77
2022/12/09 17:16:58;;;;;;;50.00;24.87;;;0.50;99.90;;;;;;10397734;28;20226;-77
2022/12/09 17:22:20;;;;;;;81.10;40.80;;;0.50;99.90;;;;;;10397723;28;20235;-77
2022/12/09 17:27:40;;;;;;;89.80;45.30;;;0.50;1.00;;;;;;10397503;28;20415;-77
2022/12/09 17:33:01;;;;;;;115.97;53.73;;;0.50;70.30;;;;;;10356184;28;20189;-75
2022/12/09 17:38:23;;;;;;;60.40;30.87;;;0.40;77.30;;;;;;10354825;28;20192;-78
2022/12/09 17:43:44;;;;;;;51.03;22.90;;;0.40;23.60;;;;;;10355305;28;20217;-76
2022/12/09 17:49:05;;;;;;;78.03;32.97;;;0.40;99.90;;;;;;10369210;28;20342;-76
2022/12/09 17:54:26;;;;;;;29.70;16.37;;;0.30;99.90;;;;;;10396774;28;20217;-75
2022/12/09 17:59:47;;;;;;;35.30;22.20;;;0.30;1.00;;;;;;10395540;28;20204;-77
2022/12/09 18:05:09;;;;;;;58.50;27.20;;;0.30;99.90;;;;;;10396614;28;20193;-78
2022/12/09 18:10:30;;;;;;;59.73;28.33;;;0.30;99.90;;;;;;10394595;28;20492;-76
2022/12/09 18:15:51;;;;;;;60.47;29.33;;;0.30;99.90;;;;;;10395076;28;20199;-77
2022/12/09 18:21:14;;;;;;;63.13;28.87;;;0.30;1.00;;;;;;10396026;28;20266;-78
2022/12/09 18:26:36;;;;;;;52.07;25.40;;;0.20;1.00;;;;;;10394725;28;20198;-75
2022/12/09 18:32:01;;;;;;;37.10;19.50;;;0.30;1.00;;;;;;10396682;28;20239;-78
2022/12/09 18:37:24;;;;;;;46.83;25.10;;;0.20;1.00;;;;;;10394797;28;20187;-78
2022/12/09 18:42:47;;;;;;;47.23;25.50;;;0.20;1.00;;;;;;10395545;28;20568;-80
2022/12/09 18:48:07;;;;;;;38.23;18.37;;;0.20;1.00;;;;;;10395218;28;20262;-77
2022/12/09 18:53:29;;;;;;;41.70;22.90;;;0.20;1.00;;;;;;10401885;28;20215;-78
2022/12/09 18:58:50;;;;;;;52.50;25.97;;;0.20;99.90;;;;;;10388705;28;20525;-76
2022/12/09 19:04:29;;;;;;;45.57;21.63;;;0.30;99.90;;;;;;10403119;28;20195;-76
2022/12/09 19:09:49;;;;;;;40.50;21.60;;;0.40;1.00;;;;;;10402829;28;20223;-77
2022/12/09 19:15:10;;;;;;;52.00;27.13;;;0.40;1.00;;;;;;10402518;28;20591;-75
2022/12/09 19:20:31;;;;;;;75.53;32.20;;;0.40;99.90;;;;;;10402618;28;20196;-78
2022/12/09 19:25:52;;;;;;;83.70;34.17;;;0.30;1.00;;;;;;10401457;28;20203;-78
2022/12/09 19:31:37;;;;;;;82.93;35.30;;;0.30;52.40;;;;;;10401645;28;20243;-79
2022/12/09 19:36:59;;;;;;;59.77;25.37;;;0.30;1.00;;;;;;10374359;28;20197;-78
2022/12/09 19:42:21;;;;;;;44.00;19.33;;;0.30;1.00;;;;;;10376711;28;20197;-77
2022/12/09 19:47:42;;;;;;;34.57;17.43;;;0.30;1.00;;;;;;10376224;28;20530;-77
2022/12/09 19:53:03;;;;;;;36.80;16.10;;;0.30;1.00;;;;;;10361012;28;20223;-74
2022/12/09 19:58:23;;;;;;;32.50;13.40;;;0.30;1.00;;;;;;10378238;28;20243;-78
2022/12/09 20:03:47;;;;;;;22.43;12.90;;;0.30;99.90;;;;;;10359322;28;20196;-78
2022/12/09 20:09:11;;;;;;;15.47;10.30;;;0.30;99.90;;;;;;10397159;28;20417;-76
2022/12/09 20:14:33;;;;;;;21.77;12.33;;;0.30;99.90;;;;;;10399325;28;20199;-76
2022/12/09 20:19:54;;;;;;;27.87;14.30;;;0.30;1.00;;;;;;10400281;28;20279;-75
2022/12/09 20:25:15;;;;;;;31.90;15.63;;;0.30;99.90;;;;;;10385481;28;20508;-75
2022/12/09 20:30:36;;;;;;;48.27;22.47;;;0.30;1.00;;;;;;10399364;28;20247;-76
2022/12/09 20:36:04;;;;;;;59.27;29.47;;;0.20;1.00;;;;;;10400029;28;20191;-78
2022/12/09 20:41:26;;;;;;;63.90;29.27;;;0.20;55.90;;;;;;10398431;28;20231;-74
2022/12/09 20:46:50;;;;;;;54.73;25.93;;;0.20;1.00;;;;;;10383982;28;20195;-76
2022/12/09 20:52:11;;;;;;;45.67;24.17;;;0.30;1.00;;;;;;10398290;28;20568;-75
2022/12/09 20:57:32;;;;;;;55.93;24.90;;;0.20;99.90;;;;;;10397993;28;20376;-78
2022/12/09 21:02:53;;;;;;;82.73;34.97;;;0.30;1.00;;;;;;10397632;28;20244;-77
2022/12/09 21:08:14;;;;;;;105.93;42.33;;;0.30;42.60;;;;;;10397668;28;20223;-76
2022/12/09 21:13:48;;;;;;;159.87;60.43;;;0.20;1.00;;;;;;10396660;28;20297;-76
2022/12/09 21:19:14;;;;;;;155.57;62.83;;;0.20;99.90;;;;;;10372805;28;20395;-76
2022/12/09 21:24:35;;;;;;;136.13;59.33;;;0.20;1.00;;;;;;10357366;28;20382;-75
2022/12/09 21:29:56;;;;;;;130.60;59.33;;;0.10;1.00;;;;;;10374821;28;20251;-74
2022/12/09 21:35:17;;;;;;;134.77;57.77;;;0.10;93.90;;;;;;10396801;28;20193;-77
2022/12/09 21:40:38;;;;;;;116.97;50.00;;;0.10;99.90;;;;;;10396443;28;20567;-74
2022/12/09 21:46:20;;;;;;;90.10;43.27;;;0.10;99.90;;;;;;10395900;28;20378;-75
2022/12/09 21:51:42;;;;;;;79.67;38.43;;;0.00;1.00;;;;;;10395943;28;20223;-75
2022/12/09 21:57:03;;;;;;;94.03;41.27;;;-0.10;90.60;;;;;;10396945;28;20520;-74
2022/12/09 22:02:24;;;;;;;87.07;39.20;;;0.00;99.90;;;;;;10396416;28;20191;-75
2022/12/09 22:07:48;;;;;;;85.90;38.17;;;0.10;84.20;;;;;;10396406;28;20225;-77
2022/12/09 22:13:10;;;;;;;69.30;34.07;;;0.00;99.90;;;;;;10396081;28;20215;-74
2022/12/09 22:18:31;;;;;;;68.27;34.80;;;0.00;99.90;;;;;;10395652;28;20212;-77
2022/12/09 22:24:01;;;;;;;74.53;37.53;;;0.00;1.00;;;;;;10395129;28;20493;-76
2022/12/09 22:29:22;;;;;;;72.20;36.13;;;0.10;99.90;;;;;;10394075;28;20236;-78
2022/12/09 22:34:43;;;;;;;68.83;34.17;;;0.10;99.90;;;;;;10394440;28;20577;-75
2022/12/09 22:40:05;;;;;;;69.13;33.73;;;0.10;1.00;;;;;;10380921;28;20219;-75
2022/12/09 22:45:26;;;;;;;63.03;32.87;;;0.10;1.00;;;;;;10394252;28;20197;-76
2022/12/09 22:50:47;;;;;;;73.10;38.17;;;0.00;1.00;;;;;;10395388;28;20584;-77
2022/12/09 22:56:10;;;;;;;76.00;36.17;;;0.00;99.90;;;;;;10393807;28;20490;-78
2022/12/09 23:01:35;;;;;;;67.50;33.87;;;0.10;1.00;;;;;;10395246;28;20507;-78
2022/12/09 23:06:57;;;;;;;78.00;35.40;;;0.10;1.00;;;;;;10394052;28;20199;-77
2022/12/09 23:12:18;;;;;;;80.43;37.27;;;0.00;1.00;;;;;;10394035;28;20215;-78
2022/12/09 23:17:39;;;;;;;62.97;32.50;;;0.00;99.90;;;;;;10393315;28;20202;-79
2022/12/09 23:23:00;;;;;;;57.00;30.10;;;0.00;38.00;;;;;;10394883;28;20266;-79
2022/12/09 23:28:21;;;;;;;69.60;34.60;;;0.00;50.10;;;;;;10393883;28;20246;-78
2022/12/09 23:33:44;;;;;;;61.07;27.30;;;-0.10;1.00;;;;;;10394683;28;20266;-77
2022/12/09 23:39:09;;;;;;;44.30;22.50;;;-0.10;3.90;;;;;;10399214;28;20244;-76
2022/12/09 23:44:30;;;;;;;48.73;25.60;;;-0.20;1.00;;;;;;10401629;28;20188;-78
2022/12/09 23:49:52;;;;;;;59.60;29.47;;;-0.10;1.00;;;;;;10414781;28;20223;-78
2022/12/09 23:55:13;;;;;;;58.40;27.17;;;0.00;1.00;;;;;;10400449;28;20191;-76
